Terminal Aerodrome Forecast
Issued by NWS Greer, SC

Home | Current Version | Previous Version | Text Only | Print | Product List | Glossary On
Versions: 1 2 3 4 5 6 7 8 9 10 11 12 13
000
FTUS42 KGSP 250500
TAFAVL
TAF
KAVL 250539Z 2506/2606 14004KT P6SM OVC120
     FM250900 00000KT 6SM -SHRA BR OVC060
     FM251300 17006KT 6SM -SHRA VCTS OVC060CB
     FM251500 18012G24KT P6SM -SHRA BKN025 OVC045 PROB30 2515/2520
      4SM TSRA OVC015CB
     FM252100 31014G26KT P6SM SCT060 SCT250
     FM260000 32013G21KT P6SM SCT250
     FM260500 33009KT P6SM FEW250=

USA.gov is the U.S. government's official web portal to all federal, state and local government web resources and services.